Time;durP1;ratioP1;P1;durP2;ratioP2;P2;SDS_P1;SDS_P2;PMS_P1;PMS_P2;Temp;Humidity;BMP_temperature;BMP_pressure;BME280_temperature;BME280_humidity;BME280_pressure;Samples;Min_cycle;Max_cycle;Signal;HPM_P1;HPM_P2
2021/12/01 00:02:11;;;;;;;;;5.00;4.00;;;;;10.88;68.82;100737.56;5056929;28;45576;-57
2021/12/01 00:04:37;;;;;;;;;4.00;4.00;;;;;10.89;68.40;100733.97;5059657;28;45597;-58
2021/12/01 00:07:03;;;;;;;;;5.50;3.00;;;;;10.89;68.32;100733.97;5058217;28;46196;-58
2021/12/01 00:09:29;;;;;;;;;6.00;3.00;;;;;10.89;68.38;100718.16;5058624;28;45390;-58
2021/12/01 00:11:55;;;;;;;;;1.00;1.00;;;;;10.85;68.72;100720.16;5056314;28;45397;-58
2021/12/01 00:14:20;;;;;;;;;4.75;4.75;;;;;10.87;68.88;100712.97;5057037;28;45517;-58
2021/12/01 00:16:46;;;;;;;;;6.00;4.25;;;;;10.86;68.79;100703.38;5058554;28;45484;-58
2021/12/01 00:19:11;;;;;;;;;7.00;5.25;;;;;10.87;68.76;100698.97;5059360;28;45681;-58
2021/12/01 00:21:37;;;;;;;;;4.50;3.75;;;;;10.86;68.86;100671.75;5054915;28;45544;-59
2021/12/01 00:24:03;;;;;;;;;8.00;4.50;;;;;10.87;69.04;100680.53;5056835;28;45683;-58
2021/12/01 00:26:28;;;;;;;;;4.00;3.75;;;;;10.86;68.93;100676.19;5057970;28;46162;-58
2021/12/01 00:28:54;;;;;;;;;4.25;3.75;;;;;10.86;68.86;100658.59;5058692;28;45364;-58
2021/12/01 00:31:19;;;;;;;;;2.50;2.00;;;;;10.86;69.21;100648.06;5057111;28;45422;-58
2021/12/01 00:33:45;;;;;;;;;4.00;4.00;;;;;10.89;68.95;100641.72;5057796;28;45570;-60
2021/12/01 00:36:13;;;;;;;;;3.00;2.50;;;;;10.90;68.63;100627.63;5056376;28;45754;-59
2021/12/01 00:38:42;;;;;;;;;6.75;3.00;;;;;10.92;68.92;100620.47;5058993;28;45477;-58
2021/12/01 00:41:08;;;;;;;;;5.00;3.00;;;;;10.92;68.77;100611.72;5055468;28;45335;-58
2021/12/01 00:43:38;;;;;;;;;5.25;3.50;;;;;10.94;69.06;100596.66;5058462;28;45607;-57
2021/12/01 00:46:14;;;;;;;;;5.25;5.25;;;;;10.96;68.86;100600.03;5056309;28;46323;-57
2021/12/01 00:48:40;;;;;;;;;4.50;4.00;;;;;10.95;69.26;100587.81;5056567;28;45453;-58
2021/12/01 00:51:07;;;;;;;;;4.00;4.00;;;;;10.96;68.94;100595.59;5053202;28;45732;-57
2021/12/01 00:53:32;;;;;;;;;7.75;4.00;;;;;10.97;68.89;100591.19;5059248;28;45406;-58
2021/12/01 00:55:58;;;;;;;;;6.00;6.00;;;;;10.96;68.87;100574.53;5054929;28;46479;-57
2021/12/01 00:58:23;;;;;;;;;4.25;3.75;;;;;10.97;69.02;100573.56;5056193;28;45490;-58
2021/12/01 01:00:49;;;;;;;;;5.75;3.75;;;;;10.96;68.82;100571.88;5055934;28;45503;-58
2021/12/01 01:03:16;;;;;;;;;4.00;4.00;;;;;10.97;69.10;100573.56;5056022;28;45493;-58
2021/12/01 01:05:42;;;;;;;;;5.25;4.00;;;;;11.01;68.99;100563.72;5056079;28;46048;-55
2021/12/01 01:08:08;;;;;;;;;5.50;4.50;;;;;11.03;69.41;100561.81;5059073;28;45649;-58
2021/12/01 01:18:44;;;;;;;;;5.00;2.75;;;;;11.04;69.29;100530.06;5058526;28;45434;-57
2021/12/01 01:21:11;;;;;;;;;3.75;3.25;;;;;11.05;69.14;100538.81;5055872;28;45703;-57
2021/12/01 01:23:38;;;;;;;;;2.00;2.00;;;;;11.06;68.92;100533.47;5054494;28;45603;-58
2021/12/01 01:26:06;;;;;;;;;3.25;2.00;;;;;11.08;68.68;100523.69;5058383;28;46329;-58
2021/12/01 01:28:32;;;;;;;;;1.50;1.50;;;;;11.07;68.74;100518.50;5055736;28;45691;-57
2021/12/01 01:30:58;;;;;;;;;4.75;1.50;;;;;11.07;68.82;100506.16;5055497;28;45410;-58
2021/12/01 01:33:24;;;;;;;;;2.50;2.50;;;;;11.09;68.76;100514.81;5056831;28;45488;-58
2021/12/01 01:35:50;;;;;;;;;3.00;2.00;;;;;11.11;68.85;100504.16;5057310;28;46061;-57
2021/12/01 01:38:16;;;;;;;;;1.00;1.00;;;;;11.13;68.60;100499.63;5055597;28;45327;-57
2021/12/01 01:40:42;;;;;;;;;2.00;2.00;;;;;11.14;69.08;100496.91;5058599;28;45496;-57
2021/12/01 01:43:08;;;;;;;;;1.00;1.00;;;;;11.16;68.58;100496.81;5055167;28;45524;-57
2021/12/01 01:45:34;;;;;;;;;4.00;2.00;;;;;11.17;68.67;100490.59;5055517;28;45544;-58
2021/12/01 01:48:05;;;;;;;;;3.00;1.50;;;;;11.16;68.89;100487.13;5055446;28;45443;-58
2021/12/01 01:50:36;;;;;;;;;2.00;2.00;;;;;11.17;68.94;100494.06;5055447;28;45563;-58
2021/12/01 01:53:07;;;;;;;;;1.25;1.25;;;;;11.15;68.96;100474.88;5053968;28;45479;-57
2021/12/01 01:55:34;;;;;;;;;1.75;1.75;;;;;11.14;69.15;100473.19;5055287;28;46342;-58
2021/12/01 01:58:00;;;;;;;;;2.00;2.00;;;;;11.15;69.29;100472.25;5054527;28;45476;-58
2021/12/01 02:00:26;;;;;;;;;3.00;3.00;;;;;11.16;69.21;100465.19;5055329;28;45630;-58
2021/12/01 02:02:54;;;;;;;;;4.25;2.00;;;;;11.18;69.13;100463.28;5054984;28;45387;-58
2021/12/01 02:05:21;;;;;;;;;2.00;1.75;;;;;11.17;69.20;100462.44;5052544;28;46714;-57
2021/12/01 02:07:47;;;;;;;;;2.00;2.00;;;;;11.13;69.19;100447.75;5055301;28;45502;-57
2021/12/01 02:10:14;;;;;;;;;1.50;1.50;;;;;11.12;69.10;100442.59;5056876;28;45552;-56
2021/12/01 02:12:39;;;;;;;;;3.50;2.75;;;;;11.10;69.45;100439.22;5054539;28;45765;-56
2021/12/01 02:15:08;;;;;;;;;3.00;3.00;;;;;11.11;69.36;100438.25;5057825;28;45470;-57
2021/12/01 02:17:35;;;;;;;;;3.50;2.00;;;;;11.12;69.51;100417.06;5059197;28;45399;-56
2021/12/01 02:20:00;;;;;;;;;2.00;2.00;;;;;11.11;69.56;100410.13;5073478;28;45432;-56
2021/12/01 02:22:26;;;;;;;;;3.00;2.75;;;;;11.13;69.56;100404.72;5055149;28;45350;-53
2021/12/01 02:24:52;;;;;;;;;3.75;2.50;;;;;11.13;69.52;100400.31;5056472;28;46358;-55
2021/12/01 02:27:17;;;;;;;;;4.75;2.75;;;;;11.13;69.20;100397.66;5054752;28;45811;-56
2021/12/01 02:29:43;;;;;;;;;2.50;2.50;;;;;11.13;69.17;100383.63;5055158;28;45395;-55
2021/12/01 02:32:08;;;;;;;;;2.00;2.00;;;;;11.11;69.69;100380.28;5055154;28;45745;-56
2021/12/01 02:34:38;;;;;;;;;2.75;2.75;;;;;11.12;69.77;100368.78;5061087;28;46130;-55
2021/12/01 02:37:04;;;;;;;;;2.25;2.25;;;;;11.11;69.52;100367.09;5063017;27;45299;-56
2021/12/01 02:39:30;;;;;;;;;1.75;1.75;;;;;11.08;69.65;100365.53;5063839;28;45174;-56
2021/12/01 02:42:05;;;;;;;;;3.25;2.00;;;;;11.07;70.31;100357.72;5063617;28;45326;-56
2021/12/01 02:44:30;;;;;;;;;2.50;2.00;;;;;11.06;69.85;100348.09;5063550;28;45257;-55
2021/12/01 02:46:56;;;;;;;;;3.00;1.75;;;;;11.05;70.11;100352.53;5063904;28;45157;-56
2021/12/01 02:49:23;;;;;;;;;3.75;3.00;;;;;11.04;70.21;100328.91;5062860;28;45417;-56
2021/12/01 02:51:53;;;;;;;;;4.00;3.25;;;;;11.01;70.61;100326.50;5063822;28;45373;-55
2021/12/01 02:54:19;;;;;;;;;4.75;2.00;;;;;10.98;71.07;100319.66;5063525;28;45248;-56
2021/12/01 02:56:47;;;;;;;;;1.50;1.50;;;;;10.96;70.98;100308.34;5063566;28;45453;-55
2021/12/01 02:59:14;;;;;;;;;3.00;2.00;;;;;10.95;71.17;100297.91;5062731;28;45422;-56
2021/12/01 03:01:40;;;;;;;;;2.00;2.00;;;;;10.95;71.21;100295.28;5063804;28;45307;-56
2021/12/01 03:04:07;;;;;;;;;2.50;2.50;;;;;10.94;71.35;100272.50;5063184;28;45334;-55
2021/12/01 03:06:35;;;;;;;;;3.00;2.00;;;;;10.93;70.95;100257.66;5063609;28;45215;-56
2021/12/01 03:09:02;;;;;;;;;4.00;3.00;;;;;10.92;71.27;100242.81;5063408;28;45305;-56
2021/12/01 03:11:27;;;;;;;;;2.50;2.00;;;;;10.94;71.54;100248.78;5063201;28;45481;-56
2021/12/01 03:13:54;;;;;;;;;3.00;3.00;;;;;10.94;71.21;100244.38;5063274;28;46053;-55
2021/12/01 03:16:20;;;;;;;;;2.00;2.00;;;;;10.94;71.42;100240.91;5060795;28;45428;-56
2021/12/01 03:18:46;;;;;;;;;2.25;1.75;;;;;10.92;71.42;100242.81;5075531;28;45354;-59
2021/12/01 03:21:12;;;;;;;;;4.25;2.00;;;;;10.92;71.26;100235.72;5061239;27;45335;-58
2021/12/01 03:23:39;;;;;;;;;1.25;1.25;;;;;10.92;71.48;100227.84;5062959;28;45314;-58
2021/12/01 03:26:04;;;;;;;;;1.50;1.50;;;;;10.95;71.30;100221.50;5078525;28;45260;-58
2021/12/01 03:28:30;;;;;;;;;1.00;1.00;;;;;10.94;71.53;100210.13;5063184;28;45196;-58
2021/12/01 03:30:56;;;;;;;;;1.00;1.00;;;;;10.95;71.39;100209.16;5062854;28;45288;-58
2021/12/01 03:33:23;;;;;;;;;2.50;1.75;;;;;10.95;71.54;100205.69;5062808;27;45604;-58
2021/12/01 03:35:51;;;;;;;;;2.50;1.75;;;;;10.96;71.79;100199.47;5063032;28;45382;-59
2021/12/01 03:38:19;;;;;;;;;1.00;1.00;;;;;10.91;72.20;100197.16;5063000;28;45302;-58
2021/12/01 03:40:45;;;;;;;;;1.00;1.00;;;;;10.88;72.33;100181.53;5063155;28;45332;-58
2021/12/01 03:43:12;;;;;;;;;2.75;1.00;;;;;10.86;72.63;100176.38;5062523;28;45369;-58
2021/12/01 03:45:38;;;;;;;;;0.00;0.00;;;;;10.86;72.70;100175.53;5077234;27;45263;-58
2021/12/01 03:48:04;;;;;;;;;1.00;0.75;;;;;10.84;72.60;100153.75;5059941;28;45770;-58
2021/12/01 03:50:30;;;;;;;;;2.00;1.75;;;;;10.83;72.96;100152.06;5062879;28;45580;-58
2021/12/01 03:52:55;;;;;;;;;1.00;1.00;;;;;10.83;73.25;100152.06;5062722;28;45957;-58
2021/12/01 03:55:21;;;;;;;;;0.75;0.75;;;;;10.80;73.38;100147.81;5062611;28;45351;-58
2021/12/01 03:57:47;;;;;;;;;1.00;1.00;;;;;10.80;73.80;100133.81;5062515;28;45422;-58
2021/12/01 04:00:16;;;;;;;;;1.00;1.00;;;;;10.78;74.03;100128.66;5062949;28;45450;-58
2021/12/01 04:02:43;;;;;;;;;2.00;1.50;;;;;10.76;74.21;100127.94;5062472;28;46314;-58
2021/12/01 04:05:10;;;;;;;;;1.00;1.00;;;;;10.77;74.18;100105.06;5062216;28;45406;-58
2021/12/01 04:07:36;;;;;;;;;1.00;1.00;;;;;10.77;74.90;100098.00;5062545;28;45318;-58
2021/12/01 04:10:04;;;;;;;;;2.75;1.00;;;;;10.77;74.19;100094.53;5062567;27;45310;-58
2021/12/01 04:12:29;;;;;;;;;1.50;1.00;;;;;10.75;74.98;100086.72;5061931;28;46563;-58
2021/12/01 04:14:55;;;;;;;;;2.25;1.50;;;;;10.76;75.05;100075.25;5062363;28;45289;-58
2021/12/01 04:17:20;;;;;;;;;1.00;1.00;;;;;10.77;75.08;100066.38;5067953;28;45320;-58
2021/12/01 04:19:46;;;;;;;;;0.25;0.25;;;;;10.74;75.03;100066.56;5070070;28;45304;-58
2021/12/01 04:22:12;;;;;;;;;3.00;1.50;;;;;10.74;75.37;100053.41;5059454;28;45399;-58
2021/12/01 04:24:37;;;;;;;;;1.00;1.00;;;;;10.76;75.26;100058.59;5062370;28;45322;-58
2021/12/01 04:27:05;;;;;;;;;1.50;1.25;;;;;10.78;75.27;100038.25;5061524;28;45713;-58
2021/12/01 04:29:30;;;;;;;;;2.00;1.00;;;;;10.78;75.64;100041.72;5062094;28;45543;-58
2021/12/01 04:31:56;;;;;;;;;1.00;1.00;;;;;10.78;75.57;100027.69;5061766;28;46222;-58
2021/12/01 04:34:21;;;;;;;;;2.50;1.00;;;;;10.76;75.50;100022.56;5062094;28;45389;-59
2021/12/01 04:36:49;;;;;;;;;3.50;1.50;;;;;10.77;75.94;100004.94;5062208;28;45327;-58
2021/12/01 04:39:16;;;;;;;;;1.00;1.00;;;;;10.78;75.57;100004.84;5062312;27;45484;-58
2021/12/01 04:42:16;;;;;;;;;1.50;1.00;;;;;10.79;75.65;99998.63;5061513;28;45294;-58
2021/12/01 04:44:36;;;;;;;;;1.75;1.75;;;;;10.80;75.54;99987.13;5059605;28;45445;-59
2021/12/01 04:47:08;;;;;;;;;2.25;2.00;;;;;10.81;76.11;99993.22;5062093;28;45206;-58
2021/12/01 04:49:37;;;;;;;;;3.00;1.25;;;;;10.82;75.68;99973.81;5061760;28;45491;-58
2021/12/01 04:52:03;;;;;;;;;3.25;2.00;;;;;10.79;75.83;99956.47;5061672;28;45331;-58
2021/12/01 04:54:30;;;;;;;;;1.75;1.75;;;;;10.76;76.04;99958.50;5061482;28;45350;-58
2021/12/01 04:56:56;;;;;;;;;1.25;1.25;;;;;10.75;76.41;99946.28;5061312;27;45322;-58
2021/12/01 04:59:22;;;;;;;;;2.25;2.25;;;;;10.75;76.21;99939.22;5061592;27;45401;-58
2021/12/01 05:01:52;;;;;;;;;2.25;1.25;;;;;10.74;76.06;99937.50;5061611;28;46221;-58
2021/12/01 05:04:17;;;;;;;;;2.00;1.00;;;;;10.72;76.25;99931.50;5061240;28;45256;-58
2021/12/01 05:06:43;;;;;;;;;1.00;1.00;;;;;10.71;76.30;99936.91;5061713;28;45330;-58
2021/12/01 05:09:09;;;;;;;;;0.50;0.00;;;;;10.70;76.64;99914.97;5059336;28;45600;-58
2021/12/01 05:11:35;;;;;;;;;1.00;1.00;;;;;10.69;76.65;99917.75;5060997;27;45558;-58
2021/12/01 05:14:01;;;;;;;;;1.75;1.75;;;;;10.69;76.75;99913.31;5061385;28;45378;-58
2021/12/01 05:16:26;;;;;;;;;2.00;1.00;;;;;10.68;76.55;99913.44;5061692;27;45354;-58
2021/12/01 05:18:52;;;;;;;;;1.00;1.00;;;;;10.66;76.68;99905.63;5074826;28;45313;-58
2021/12/01 05:21:18;;;;;;;;;0.00;0.00;;;;;10.63;76.61;99905.84;5061376;28;45708;-58
2021/12/01 05:23:44;;;;;;;;;1.25;1.00;;;;;10.62;77.18;99910.28;5061230;28;45260;-58
2021/12/01 05:26:11;;;;;;;;;0.25;0.25;;;;;10.61;77.04;99907.75;5060943;28;45420;-58
2021/12/01 05:28:40;;;;;;;;;0.00;0.00;;;;;10.59;77.17;99891.25;5061523;28;45299;-58
2021/12/01 05:31:06;;;;;;;;;1.00;1.00;;;;;10.54;76.87;99895.97;5060435;28;45448;-58
2021/12/01 05:33:32;;;;;;;;;0.00;0.00;;;;;10.58;77.20;99894.78;5060964;28;45385;-58
2021/12/01 05:35:58;;;;;;;;;0.00;0.00;;;;;10.59;77.25;99886.81;5061258;28;45287;-58
2021/12/01 05:38:25;;;;;;;;;0.00;0.00;;;;;10.62;77.32;99883.09;5061416;28;45596;-58
2021/12/01 05:40:50;;;;;;;;;0.00;0.00;;;;;10.64;77.30;99891.72;5060990;28;46186;-58
2021/12/01 05:43:17;;;;;;;;;0.75;0.00;;;;;10.66;76.79;99889.81;5060801;28;45310;-58
2021/12/01 05:45:44;;;;;;;;;0.00;0.00;;;;;10.67;77.10;99886.25;5061150;28;45345;-58
2021/12/01 05:48:10;;;;;;;;;0.00;0.00;;;;;10.69;76.98;99879.06;5060984;28;45639;-58
2021/12/01 05:50:36;;;;;;;;;0.25;0.00;;;;;10.70;76.65;99864.94;5061035;28;46256;-59
2021/12/01 05:53:02;;;;;;;;;0.00;0.00;;;;;10.69;76.70;99857.16;5060799;28;45641;-59
2021/12/01 05:55:28;;;;;;;;;0.00;0.00;;;;;10.68;76.72;99847.59;5061096;28;45243;-59
2021/12/01 05:57:53;;;;;;;;;0.25;0.00;;;;;10.67;76.97;99857.28;5060984;28;45615;-59
2021/12/01 06:00:19;;;;;;;;;0.00;0.00;;;;;10.66;77.09;99852.94;5060855;28;46179;-59
2021/12/01 06:02:49;;;;;;;;;0.00;0.00;;;;;10.69;77.22;99849.25;5060219;27;45260;-59
2021/12/01 06:05:15;;;;;;;;;0.00;0.00;;;;;10.68;77.09;99845.78;5060570;28;45448;-57
2021/12/01 06:07:40;;;;;;;;;0.25;0.00;;;;;10.70;76.95;99833.34;5060822;28;45282;-58
2021/12/01 06:10:06;;;;;;;;;0.75;0.00;;;;;10.71;76.93;99821.00;5063085;28;45298;-58
2021/12/01 06:12:32;;;;;;;;;0.00;0.00;;;;;10.75;77.51;99814.56;5064117;28;45423;-58
2021/12/01 06:14:58;;;;;;;;;0.00;0.00;;;;;10.73;77.17;99812.03;5064112;28;45162;-58
2021/12/01 06:17:24;;;;;;;;;0.00;0.00;;;;;10.72;77.12;99814.78;5070509;28;45348;-58
2021/12/01 06:19:49;;;;;;;;;7.00;4.00;;;;;10.73;77.35;99803.28;5071143;28;46018;-59
2021/12/01 06:22:15;;;;;;;;;0.00;0.00;;;;;10.75;77.24;99811.94;5063929;28;45332;-57
2021/12/01 06:24:40;;;;;;;;;0.00;0.00;;;;;10.77;77.25;99802.94;5064266;28;45476;-57
2021/12/01 06:27:06;;;;;;;;;0.25;0.25;;;;;10.79;77.41;99795.75;5063895;28;45427;-57
2021/12/01 06:29:32;;;;;;;;;0.00;0.00;;;;;10.83;77.88;99802.50;5064039;28;45192;-57
2021/12/01 06:31:58;;;;;;;;;0.00;0.00;;;;;10.85;77.33;99797.09;5063792;28;45484;-58
2021/12/01 06:34:23;;;;;;;;;0.00;0.00;;;;;10.85;77.33;99792.69;5064114;28;45289;-58
2021/12/01 06:36:49;;;;;;;;;0.00;0.00;;;;;10.85;77.34;99784.78;5064312;28;45346;-58
2021/12/01 06:39:15;;;;;;;;;1.50;0.00;;;;;10.86;77.24;99778.53;5063554;28;45478;-58
2021/12/01 06:41:40;;;;;;;;;0.00;0.00;;;;;10.87;77.85;99782.00;5063589;28;45468;-58
2021/12/01 06:44:06;;;;;;;;;1.00;1.00;;;;;10.85;77.69;99776.03;5063503;28;45346;-58
2021/12/01 06:46:32;;;;;;;;;1.00;0.00;;;;;10.87;77.64;99776.75;5060003;28;45577;-58
2021/12/01 06:48:58;;;;;;;;;0.50;0.50;;;;;10.92;77.79;99779.88;5051992;28;46376;-58
2021/12/01 06:51:24;;;;;;;;;0.00;0.00;;;;;10.94;77.54;99779.75;5058020;28;45578;-50
2021/12/01 06:53:50;;;;;;;;;0.00;0.00;;;;;10.97;77.52;99774.25;5062350;28;45589;-56
2021/12/01 06:56:16;;;;;;;;;0.25;0.00;;;;;10.99;77.67;99767.91;5059916;28;45522;-58
2021/12/01 06:58:42;;;;;;;;;0.75;0.00;;;;;11.02;77.88;99764.19;5063478;28;46304;-57
2021/12/01 07:01:09;;;;;;;;;0.00;0.00;;;;;11.05;77.51;99767.44;5063240;28;45676;-57
2021/12/01 07:03:35;;;;;;;;;0.50;0.00;;;;;11.06;77.75;99771.78;5063233;28;45462;-57
2021/12/01 07:06:01;;;;;;;;;3.00;1.00;;;;;11.09;77.73;99763.63;5063279;28;45420;-57
2021/12/01 07:08:27;;;;;;;;;0.00;0.00;;;;;11.09;77.73;99763.63;5057967;28;45492;-57
2021/12/01 07:10:52;;;;;;;;;1.50;0.00;;;;;11.13;77.57;99764.22;5061025;28;45382;-57
2021/12/01 07:13:18;;;;;;;;;3.25;0.50;;;;;11.15;77.71;99757.88;5051964;28;45718;-56
2021/12/01 07:15:44;;;;;;;;;0.75;0.75;;;;;11.16;77.98;99764.00;5061817;28;45679;-57
2021/12/01 07:18:09;;;;;;;;;0.00;0.00;;;;;11.15;77.82;99760.50;5059704;28;45897;-57
2021/12/01 07:20:35;;;;;;;;;1.50;1.50;;;;;11.19;78.10;99750.56;5057372;28;45291;-57
2021/12/01 07:23:02;;;;;;;;;2.00;1.25;;;;;11.23;77.97;99765.19;5061333;28;45480;-57
2021/12/01 07:25:29;;;;;;;;;1.00;1.00;;;;;11.26;78.08;99766.75;5067714;28;45500;-57
2021/12/01 07:27:54;;;;;;;;;0.75;0.75;;;;;11.26;78.52;99759.66;5062637;28;45393;-56
2021/12/01 07:30:20;;;;;;;;;1.00;0.00;;;;;11.28;78.31;99764.81;5059312;28;45390;-57
2021/12/01 07:32:45;;;;;;;;;0.00;0.00;;;;;11.30;78.63;99766.41;5062365;28;45260;-57
2021/12/01 07:35:11;;;;;;;;;1.00;0.00;;;;;11.31;78.25;99754.06;5062155;28;45561;-58
2021/12/01 07:37:36;;;;;;;;;0.25;0.25;;;;;11.36;78.31;99763.25;5052311;28;45347;-57
2021/12/01 07:40:03;;;;;;;;;0.00;0.00;;;;;11.41;78.40;99771.66;5060651;28;45500;-57
2021/12/01 07:42:28;;;;;;;;;8.00;7.50;;;;;11.46;78.26;99772.16;5056635;28;45477;-57
2021/12/01 07:44:54;;;;;;;;;6.00;6.00;;;;;11.48;77.97;99764.13;5062413;28;45553;-57
2021/12/01 07:47:19;;;;;;;;;0.25;0.00;;;;;11.49;78.00;99767.59;5056473;28;45916;-57
2021/12/01 07:49:45;;;;;;;;;0.00;0.00;;;;;11.48;78.06;99764.13;5062123;28;45383;-58
2021/12/01 07:52:10;;;;;;;;;1.00;0.00;;;;;11.50;77.90;99766.63;5062756;28;45375;-58
2021/12/01 07:54:37;;;;;;;;;3.00;1.50;;;;;11.54;78.04;99747.81;5062527;28;45418;-63
2021/12/01 07:57:03;;;;;;;;;1.00;1.00;;;;;11.60;77.57;99757.84;5061435;28;45251;-58
2021/12/01 07:59:29;;;;;;;;;0.00;0.00;;;;;11.63;77.31;99755.00;5060818;27;45448;-57
2021/12/01 08:01:55;;;;;;;;;0.00;0.00;;;;;11.65;77.58;99753.06;5059021;28;45345;-57
2021/12/01 08:04:20;;;;;;;;;0.75;0.00;;;;;11.67;77.47;99730.03;5062857;28;46374;-55
2021/12/01 08:06:46;;;;;;;;;1.50;1.25;;;;;11.70;77.38;99731.59;5055346;28;45311;-56
2021/12/01 08:09:12;;;;;;;;;1.00;1.00;;;;;11.71;77.17;99735.91;5059965;28;45453;-56
2021/12/01 08:11:38;;;;;;;;;0.00;0.00;;;;;11.72;77.23;99742.88;5065764;27;45490;-56
2021/12/01 08:14:07;;;;;;;;;0.00;0.00;;;;;11.74;77.00;99727.75;5061664;28;45343;-57
2021/12/01 08:16:34;;;;;;;;;0.00;0.00;;;;;11.78;76.82;99728.34;5061201;28;46305;-57
2021/12/01 08:19:00;;;;;;;;;0.00;0.00;;;;;11.80;76.60;99722.03;5061036;28;45549;-55
2021/12/01 08:21:25;;;;;;;;;0.00;0.00;;;;;11.80;76.52;99719.38;5057140;27;45363;-57
2021/12/01 08:23:51;;;;;;;;;1.75;0.00;;;;;11.79;76.50;99722.94;5058986;28;45457;-58
2021/12/01 08:26:18;;;;;;;;;0.75;0.00;;;;;11.78;76.33;99723.91;5057645;28;45366;-58
2021/12/01 08:28:45;;;;;;;;;0.00;0.00;;;;;11.75;76.48;99727.63;5059787;28;45333;-58
2021/12/01 08:31:15;;;;;;;;;0.75;0.00;;;;;11.78;76.72;99723.09;5058809;28;45523;-58
2021/12/01 08:33:41;;;;;;;;;0.00;0.00;;;;;11.79;76.40;99722.94;5060809;28;45575;-58
2021/12/01 08:36:07;;;;;;;;;0.00;0.00;;;;;11.83;76.49;99724.41;5060836;28;45477;-57
2021/12/01 08:38:33;;;;;;;;;0.00;0.00;;;;;11.90;76.33;99722.09;5061075;28;45459;-57
2021/12/01 08:40:59;;;;;;;;;0.00;0.00;;;;;11.92;76.25;99728.94;5073590;28;45539;-58
2021/12/01 08:43:25;;;;;;;;;1.00;0.00;;;;;11.98;75.97;99723.16;5058262;28;45405;-58
2021/12/01 08:45:51;;;;;;;;;0.50;0.00;;;;;12.04;75.61;99716.56;5057099;28;45396;-58
2021/12/01 08:48:17;;;;;;;;;0.00;0.00;;;;;12.09;75.55;99713.56;5056013;28;45373;-57
2021/12/01 08:50:42;;;;;;;;;0.00;0.00;;;;;12.15;75.45;99715.66;5058906;27;45445;-58
2021/12/01 08:53:08;;;;;;;;;0.00;0.00;;;;;12.14;74.83;99711.34;5056240;28;45769;-57
2021/12/01 08:55:34;;;;;;;;;0.00;0.00;;;;;12.14;75.00;99699.00;5055982;28;45534;-55
2021/12/01 08:58:02;;;;;;;;;1.25;0.00;;;;;12.17;74.80;99703.19;5058697;28;45446;-57
2021/12/01 09:00:28;;;;;;;;;0.50;0.00;;;;;12.24;74.64;99714.91;5056786;28;45694;-57
2021/12/01 09:02:53;;;;;;;;;0.50;0.00;;;;;12.36;74.32;99715.72;5058638;28;45637;-57
2021/12/01 09:05:19;;;;;;;;;0.50;0.00;;;;;12.47;74.01;99720.91;5055821;28;45467;-57
2021/12/01 09:07:44;;;;;;;;;1.50;0.00;;;;;12.56;73.67;99714.91;5058657;27;45386;-54
2021/12/01 09:10:10;;;;;;;;;0.00;0.00;;;;;12.64;73.55;99722.16;5056127;28;45330;-58
2021/12/01 09:12:35;;;;;;;;;0.00;0.00;;;;;12.70;72.92;99711.91;5058492;28;45408;-57
2021/12/01 09:15:01;;;;;;;;;0.00;0.00;;;;;12.75;72.60;99714.16;5053007;28;45499;-57
2021/12/01 09:17:26;;;;;;;;;0.00;0.00;;;;;12.73;72.45;99700.25;5058997;28;45649;-54
2021/12/01 09:19:53;;;;;;;;;1.00;0.00;;;;;12.79;72.18;99712.94;5060522;28;45372;-56
2021/12/01 09:22:20;;;;;;;;;0.00;0.00;;;;;12.76;71.90;99702.63;5060689;28;45326;-56
2021/12/01 09:24:47;;;;;;;;;0.00;0.00;;;;;12.73;71.94;99708.19;5059785;27;45531;-52
2021/12/01 09:27:13;;;;;;;;;1.00;0.00;;;;;12.71;71.86;99707.47;5059521;28;45506;-55
2021/12/01 09:29:39;;;;;;;;;0.00;0.00;;;;;12.64;71.06;99699.25;5060313;28;45442;-55
2021/12/01 09:32:05;;;;;;;;;1.00;0.00;;;;;12.62;71.72;99706.44;5059921;28;45461;-56
2021/12/01 09:34:31;;;;;;;;;0.00;0.00;;;;;12.60;71.18;99705.72;5059923;28;46524;-57
2021/12/01 09:36:57;;;;;;;;;0.00;0.00;;;;;12.54;71.37;99711.53;5060012;28;45434;-57
2021/12/01 09:39:24;;;;;;;;;1.00;0.00;;;;;12.48;71.36;99706.75;5060261;27;45381;-54
2021/12/01 09:41:51;;;;;;;;;0.00;0.00;;;;;12.43;70.91;99717.72;5059932;28;45613;-54
2021/12/01 09:44:17;;;;;;;;;0.00;0.00;;;;;12.42;71.13;99734.53;5058533;28;45561;-53
2021/12/01 09:46:43;;;;;;;;;0.00;0.00;;;;;12.44;70.87;99729.09;5060036;28;45367;-53
2021/12/01 09:49:09;;;;;;;;;0.00;0.00;;;;;12.47;70.97;99728.84;5060910;27;45434;-53
2021/12/01 09:51:34;;;;;;;;;1.75;0.00;;;;;12.52;70.61;99737.22;5060935;28;45312;-53
2021/12/01 09:54:02;;;;;;;;;1.00;0.00;;;;;12.51;70.07;99740.84;5060348;27;46515;-55
2021/12/01 09:56:29;;;;;;;;;1.50;0.00;;;;;12.52;70.06;99740.72;5058762;28;45767;-56
2021/12/01 09:58:55;;;;;;;;;1.00;1.00;;;;;12.54;70.53;99743.22;5049022;28;45490;-55
2021/12/01 10:01:23;;;;;;;;;0.00;0.00;;;;;12.56;69.73;99741.31;5055618;28;45651;-56
2021/12/01 10:03:50;;;;;;;;;0.00;0.00;;;;;12.57;69.69;99733.25;5060164;28;45562;-55
2021/12/01 10:06:21;;;;;;;;;0.00;0.00;;;;;12.60;69.64;99733.94;5056859;28;45303;-55
2021/12/01 10:08:53;;;;;;;;;0.00;0.00;;;;;12.56;69.55;99739.50;5055527;28;45704;-55
2021/12/01 10:11:48;;;;;;;;;0.50;0.00;;;;;12.60;69.20;99737.44;5057158;28;45441;-55
2021/12/01 10:14:21;;;;;;;;;21.75;21.00;;;;;12.59;68.82;99743.69;5052176;28;45507;-54
2021/12/01 10:16:52;;;;;;;;;0.25;0.00;;;;;12.56;69.02;99744.78;5058080;28;45453;-55
2021/12/01 10:19:17;;;;;;;;;0.00;0.00;;;;;12.54;69.36;99754.63;5055877;28;45464;-55
2021/12/01 10:21:43;;;;;;;;;0.00;0.00;;;;;12.48;69.45;99749.00;5071997;27;45616;-55
2021/12/01 10:24:32;;;;;;;;;0.25;0.00;;;;;12.40;69.49;99751.44;5056469;28;45419;-53
2021/12/01 10:27:04;;;;;;;;;2.00;0.00;;;;;12.27;69.30;99747.19;5056507;28;45163;-54
2021/12/01 10:29:34;;;;;;;;;0.00;0.00;;;;;12.21;69.65;99746.84;5054931;28;45299;-53
2021/12/01 10:32:07;;;;;;;;;2.00;0.00;;;;;12.10;69.80;99747.75;5056788;28;46459;-53
2021/12/01 10:34:40;;;;;;;;;0.00;0.00;;;;;11.97;69.97;99747.03;5058105;28;45434;-55
2021/12/01 10:37:13;;;;;;;;;0.25;0.00;;;;;11.87;70.81;99749.59;5056822;27;45236;-50
2021/12/01 10:39:44;;;;;;;;;0.00;0.00;;;;;11.85;71.21;99746.25;5054205;28;45267;-55
2021/12/01 10:42:14;;;;;;;;;1.00;0.00;;;;;11.88;71.42;99758.34;5056680;28;45551;-56
2021/12/01 10:44:55;;;;;;;;;0.00;0.00;;;;;11.90;71.51;99759.06;5053575;28;45298;-58
2021/12/01 10:47:21;;;;;;;;;0.00;0.00;;;;;11.91;71.39;99758.94;5055934;28;45488;-53
2021/12/01 10:49:47;;;;;;;;;0.50;0.00;;;;;11.89;71.33;99755.56;5054460;28;45374;-51
2021/12/01 10:52:33;;;;;;;;;0.00;0.00;;;;;11.86;71.56;99758.47;5056383;28;45559;-57
2021/12/01 10:55:14;;;;;;;;;1.00;1.00;;;;;11.84;71.60;99757.72;5059303;28;46070;-56
2021/12/01 10:57:49;;;;;;;;;1.75;0.00;;;;;11.86;71.32;99755.84;5056285;28;45560;-53
2021/12/01 11:00:19;;;;;;;;;1.00;1.00;;;;;11.86;71.38;99749.72;5059892;27;45520;-57
2021/12/01 11:02:44;;;;;;;;;1.00;1.00;;;;;11.87;71.04;99756.66;5058339;28;45252;-54
2021/12/01 11:05:10;;;;;;;;;2.00;1.00;;;;;11.83;71.40;99744.66;5059554;28;45469;-51
2021/12/01 11:07:36;;;;;;;;;1.00;1.00;;;;;11.82;71.39;99748.28;5061648;28;46203;-53
2021/12/01 11:10:18;;;;;;;;;4.25;0.75;;;;;11.81;71.59;99758.00;5060985;28;45299;-59
2021/12/01 11:13:11;;;;;;;;;1.00;1.00;;;;;11.80;71.50;99750.16;5062011;28;45349;-58
2021/12/01 11:15:44;;;;;;;;;4.25;1.25;;;;;11.81;71.66;99742.16;5058169;28;45299;-56
2021/12/01 11:18:17;;;;;;;;;2.00;2.00;;;;;11.81;70.97;99738.69;5059876;28;45536;-56
2021/12/01 11:20:54;;;;;;;;;2.50;2.00;;;;;11.77;71.77;99739.84;5062141;28;45335;-60
2021/12/01 11:23:31;;;;;;;;;1.00;1.00;;;;;11.76;71.58;99736.38;5062497;28;46517;-58
2021/12/01 11:26:07;;;;;;;;;1.75;1.50;;;;;11.78;71.34;99734.47;5064007;28;45441;-52
2021/12/01 11:28:46;;;;;;;;;4.00;2.00;;;;;11.80;71.68;99739.63;5060866;28;45405;-56
2021/12/01 11:31:24;;;;;;;;;4.00;1.00;;;;;11.84;71.63;99736.63;5059549;28;45290;-56
2021/12/01 11:33:54;;;;;;;;;0.00;0.00;;;;;11.89;71.21;99737.09;5062451;28;45403;-56
2021/12/01 11:36:25;;;;;;;;;1.75;1.75;;;;;11.93;71.19;99733.28;5060927;28;46349;-55
2021/12/01 11:38:53;;;;;;;;;3.00;1.25;;;;;11.98;70.60;99731.06;5058376;28;45323;-53